createdAt,value
2022-09-07T00:01:21.677Z,22.12
2022-09-07T00:03:48.481Z,22.12
2022-09-07T00:06:15.711Z,22.11
2022-09-07T00:08:46.246Z,22.07
2022-09-07T00:11:17.955Z,22.06
2022-09-07T00:13:46.771Z,21.99
2022-09-07T00:16:16.972Z,21.91
2022-09-07T00:18:46.188Z,21.75
2022-09-07T00:21:14.479Z,21.60
2022-09-07T00:23:41.291Z,21.45
2022-09-07T00:26:11.829Z,21.20
2022-09-07T00:28:39.823Z,20.99
2022-09-07T00:31:15.390Z,20.83
2022-09-07T00:33:48.342Z,20.71
2022-09-07T00:36:16.781Z,20.67
2022-09-07T00:38:43.640Z,20.61
2022-09-07T00:41:11.102Z,20.58
2022-09-07T00:43:46.852Z,20.57
2022-09-07T00:46:17.459Z,20.49
2022-09-07T00:49:08.095Z,20.45
2022-09-07T00:51:46.005Z,20.47
2022-09-07T00:54:19.371Z,20.51
2022-09-07T00:56:48.794Z,20.50
2022-09-07T00:59:20.113Z,20.50
2022-09-07T01:01:46.761Z,20.43
2022-09-07T01:04:15.349Z,20.43
2022-09-07T01:06:43.332Z,20.40
2022-09-07T01:09:12.750Z,20.34
2022-09-07T01:11:39.704Z,20.29
2022-09-07T01:14:10.402Z,20.32
2022-09-07T01:16:36.988Z,20.35
2022-09-07T01:19:53.902Z,20.39
2022-09-07T01:22:36.728Z,20.41
2022-09-07T01:25:25.308Z,20.43
2022-09-07T01:28:00.127Z,20.42
2022-09-07T01:30:27.863Z,20.39
2022-09-07T01:33:06.949Z,20.40
2022-09-07T01:35:45.268Z,20.37
2022-09-07T01:38:22.651Z,20.33
2022-09-07T01:41:23.100Z,20.28
2022-09-07T01:44:06.995Z,20.26
2022-09-07T01:46:51.616Z,20.28
2022-09-07T01:49:24.788Z,20.22
2022-09-07T01:52:00.050Z,20.17
2022-09-07T01:54:34.699Z,20.11
2022-09-07T01:57:06.449Z,20.12
2022-09-07T01:59:39.314Z,20.11
2022-09-07T02:02:12.712Z,20.12
2022-09-07T02:04:48.457Z,20.12
2022-09-07T02:07:27.424Z,20.11
2022-09-07T02:09:59.642Z,20.05
2022-09-07T02:12:45.849Z,20.03
2022-09-07T02:15:21.090Z,20.00
2022-09-07T02:17:58.657Z,19.96
2022-09-07T02:20:32.195Z,19.95
2022-09-07T02:23:02.821Z,19.90
2022-09-07T02:25:40.820Z,19.90
2022-09-07T02:28:17.471Z,19.88
2022-09-07T02:30:44.557Z,19.87
2022-09-07T02:33:11.370Z,19.87
2022-09-07T02:35:38.140Z,19.89
2022-09-07T02:38:06.419Z,19.88
2022-09-07T02:40:33.847Z,19.85
2022-09-07T02:43:05.737Z,19.84
2022-09-07T02:45:57.453Z,19.83
2022-09-07T02:48:49.946Z,19.78
2022-09-07T02:51:22.270Z,19.73
2022-09-07T02:54:10.646Z,19.70
2022-09-07T02:56:52.720Z,19.65
2022-09-07T02:59:43.443Z,19.62
2022-09-07T03:02:09.963Z,19.60
2022-09-07T03:05:01.873Z,19.57
2022-09-07T03:07:55.557Z,19.52
2022-09-07T03:10:22.794Z,19.47
2022-09-07T03:12:50.624Z,19.43
2022-09-07T03:15:27.448Z,19.42
2022-09-07T03:17:54.364Z,19.35
2022-09-07T03:20:22.199Z,19.32
2022-09-07T03:22:51.189Z,19.27
2022-09-07T03:25:19.348Z,19.24
2022-09-07T03:27:46.033Z,19.18
2022-09-07T03:30:13.324Z,19.14
2022-09-07T03:32:40.162Z,19.09
2022-09-07T03:35:08.257Z,19.09
2022-09-07T03:37:38.100Z,19.05
2022-09-07T03:40:11.221Z,19.00
2022-09-07T03:42:38.283Z,18.91
2022-09-07T03:45:06.568Z,18.90
2022-09-07T03:47:39.592Z,18.86
2022-09-07T03:50:25.005Z,18.85
2022-09-07T03:52:51.583Z,18.77
2022-09-07T03:55:18.165Z,18.72
2022-09-07T03:57:44.839Z,18.67
2022-09-07T04:00:12.279Z,18.65
2022-09-07T04:02:38.879Z,18.62
2022-09-07T04:05:05.837Z,18.60
2022-09-07T04:07:32.390Z,18.57
2022-09-07T04:09:59.134Z,18.54
2022-09-07T04:12:26.139Z,18.52
2022-09-07T04:14:52.822Z,18.51
2022-09-07T04:17:19.361Z,18.50
2022-09-07T04:19:46.021Z,18.49
2022-09-07T04:22:12.562Z,18.48
2022-09-07T04:24:39.193Z,18.45
2022-09-07T04:27:05.832Z,18.43
2022-09-07T04:29:32.481Z,18.40
2022-09-07T04:31:58.987Z,18.37
2022-09-07T04:34:25.650Z,18.35
2022-09-07T04:36:52.323Z,18.32
2022-09-07T04:39:19.122Z,18.29
2022-09-07T04:41:45.664Z,18.24
2022-09-07T04:44:16.595Z,18.23
2022-09-07T04:46:43.650Z,18.20
2022-09-07T04:49:11.243Z,18.17
2022-09-07T04:51:40.028Z,18.18
2022-09-07T04:54:07.164Z,18.16
2022-09-07T04:56:34.071Z,18.15
2022-09-07T04:59:04.319Z,18.15
2022-09-07T05:01:30.950Z,18.11
2022-09-07T05:04:00.945Z,18.09
2022-09-07T05:06:27.654Z,18.09
2022-09-07T05:08:54.822Z,18.08
2022-09-07T05:11:28.812Z,18.08
2022-09-07T05:13:58.119Z,18.09
2022-09-07T05:16:25.812Z,18.10
2022-09-07T05:18:54.959Z,18.10
2022-09-07T05:21:26.461Z,18.10
2022-09-07T05:23:55.605Z,18.13
2022-09-07T05:26:24.392Z,18.16
2022-09-07T05:28:51.013Z,18.17
2022-09-07T05:31:20.532Z,18.20
2022-09-07T05:36:38.678Z,18.25
2022-09-07T05:39:06.979Z,18.27
2022-09-07T05:41:33.898Z,18.32
2022-09-07T05:46:47.090Z,18.39
2022-09-07T05:49:14.771Z,18.42
2022-09-07T05:51:41.338Z,18.48
2022-09-07T05:54:07.956Z,18.55
2022-09-07T05:56:37.591Z,18.62
2022-09-07T05:59:04.247Z,18.66
2022-09-07T06:01:31.906Z,18.67
2022-09-07T06:04:00.494Z,18.68
2022-09-07T06:06:27.519Z,18.70
2022-09-07T06:08:54.392Z,18.68
2022-09-07T06:11:23.016Z,18.72
2022-09-07T06:13:50.101Z,18.74
2022-09-07T06:16:18.497Z,18.77
2022-09-07T06:18:47.287Z,18.82
2022-09-07T06:21:16.827Z,18.99
2022-09-07T06:23:44.202Z,19.20
2022-09-07T06:26:11.702Z,19.26
2022-09-07T06:28:46.655Z,19.30
2022-09-07T06:31:18.345Z,19.30
2022-09-07T06:33:45.643Z,19.23
2022-09-07T06:36:15.044Z,19.29
2022-09-07T06:38:42.291Z,19.27
2022-09-07T06:43:58.562Z,19.33
2022-09-07T06:49:12.595Z,19.34
2022-09-07T06:51:39.203Z,19.36
2022-09-07T06:56:52.504Z,19.48
2022-09-07T06:59:19.273Z,19.47
2022-09-07T07:01:46.413Z,19.62
2022-09-07T07:04:13.327Z,19.71
2022-09-07T07:06:40.492Z,19.91
2022-09-07T07:09:10.674Z,19.97
2022-09-07T07:11:37.631Z,20.07
2022-09-07T07:14:04.579Z,20.19
2022-09-07T07:16:31.575Z,20.27
2022-09-07T07:19:16.953Z,20.28
2022-09-07T07:22:07.790Z,20.35
2022-09-07T07:24:30.634Z,20.48
2022-09-07T07:26:57.556Z,20.55
2022-09-07T07:29:27.997Z,20.55
2022-09-07T07:31:56.098Z,20.58
2022-09-07T07:34:22.798Z,20.63
2022-09-07T07:36:49.599Z,20.71
2022-09-07T07:42:05.011Z,20.87
2022-09-07T07:44:32.368Z,20.94
2022-09-07T07:46:58.928Z,21.10
2022-09-07T07:49:25.816Z,21.21
2022-09-07T07:54:43.326Z,21.20
2022-09-07T07:57:10.448Z,21.21
2022-09-07T07:59:37.857Z,21.18
2022-09-07T08:02:06.194Z,21.17
2022-09-07T08:04:36.171Z,21.14
2022-09-07T08:07:09.702Z,21.16
2022-09-07T08:09:40.147Z,21.16
2022-09-07T08:12:06.907Z,21.18
2022-09-07T08:14:36.507Z,21.19
2022-09-07T08:17:03.150Z,21.19
2022-09-07T08:19:29.695Z,21.21
2022-09-07T08:21:56.632Z,21.25
2022-09-07T08:24:23.198Z,21.37
2022-09-07T08:26:49.690Z,21.45
2022-09-07T08:29:17.419Z,21.51
2022-09-07T08:31:44.686Z,21.52
2022-09-07T08:34:11.665Z,21.56
2022-09-07T08:36:38.187Z,21.56
2022-09-07T08:39:04.844Z,21.53
2022-09-07T08:41:54.465Z,21.54
2022-09-07T08:44:51.061Z,21.58
2022-09-07T08:47:36.512Z,21.58
2022-09-07T08:50:09.221Z,21.66
2022-09-07T08:52:48.987Z,21.72
2022-09-07T08:55:31.087Z,21.76
2022-09-07T08:58:18.123Z,21.79
2022-09-07T09:01:30.708Z,21.84
2022-09-07T09:06:53.814Z,21.81
2022-09-07T09:09:52.050Z,21.85
2022-09-07T09:12:37.515Z,21.86
2022-09-07T09:15:13.635Z,21.89
2022-09-07T09:18:00.189Z,21.94
2022-09-07T09:20:42.122Z,21.93
2022-09-07T09:23:17.022Z,21.95
2022-09-07T09:25:54.502Z,21.95
2022-09-07T09:28:22.217Z,21.97
2022-09-07T09:30:48.873Z,22.03
2022-09-07T09:33:22.176Z,22.13
2022-09-07T09:35:51.381Z,22.18
2022-09-07T09:38:36.090Z,22.11
2022-09-07T09:41:05.515Z,22.14
2022-09-07T09:43:53.514Z,22.19
2022-09-07T09:46:20.206Z,22.20
2022-09-07T09:49:18.079Z,22.24
2022-09-07T09:54:43.486Z,22.29
2022-09-07T09:57:17.729Z,22.33
2022-09-07T10:00:05.323Z,22.40
2022-09-07T10:05:39.351Z,22.41
2022-09-07T10:08:19.444Z,22.38
2022-09-07T10:11:01.840Z,22.39
2022-09-07T10:13:53.209Z,22.36
2022-09-07T10:16:39.294Z,22.35
2022-09-07T10:19:05.953Z,22.34
2022-09-07T10:21:32.824Z,22.36
2022-09-07T10:24:00.451Z,22.39
2022-09-07T10:26:32.126Z,22.41
2022-09-07T10:29:11.071Z,22.46
2022-09-07T10:31:51.611Z,22.51
2022-09-07T10:34:50.750Z,22.53
2022-09-07T10:37:49.880Z,22.46
2022-09-07T10:40:29.584Z,22.54
2022-09-07T10:43:24.016Z,22.75
2022-09-07T10:46:12.336Z,22.97
2022-09-07T10:48:54.326Z,23.19
2022-09-07T10:51:43.709Z,23.44
2022-09-07T10:54:36.688Z,23.65
2022-09-07T10:57:21.401Z,23.86
2022-09-07T11:00:11.318Z,23.97
2022-09-07T11:03:24.945Z,23.95
2022-09-07T11:05:49.364Z,24.03
2022-09-07T11:09:14.549Z,23.99
2022-09-07T11:14:22.005Z,23.95
2022-09-07T11:17:05.240Z,24.03
2022-09-07T11:19:50.714Z,24.12
2022-09-07T11:22:30.009Z,24.19
2022-09-07T11:25:33.048Z,24.23
2022-09-07T11:28:07.357Z,24.30
2022-09-07T11:30:40.500Z,24.40
2022-09-07T11:33:26.966Z,24.55
2022-09-07T11:36:01.007Z,24.63
2022-09-07T11:38:45.734Z,24.68
2022-09-07T11:41:15.082Z,24.69
2022-09-07T11:44:03.191Z,24.74
2022-09-07T11:46:47.058Z,24.80
2022-09-07T11:49:25.836Z,24.81
2022-09-07T11:52:05.679Z,24.77
2022-09-07T11:54:56.201Z,24.73
2022-09-07T11:57:31.934Z,24.71
2022-09-07T12:00:15.776Z,24.72
2022-09-07T12:03:08.655Z,24.77
2022-09-07T12:05:53.761Z,24.84
2022-09-07T12:08:58.474Z,24.96
2022-09-07T12:11:38.190Z,24.97
2022-09-07T12:14:10.442Z,24.92
2022-09-07T12:16:51.161Z,24.95
2022-09-07T12:19:20.379Z,25.01
2022-09-07T12:21:52.926Z,25.08
2022-09-07T12:24:40.940Z,25.12
2022-09-07T12:27:19.734Z,25.18
2022-09-07T12:29:58.479Z,25.17
2022-09-07T12:32:58.089Z,25.11
2022-09-07T12:35:31.100Z,25.13
2022-09-07T12:38:24.506Z,25.20
2022-09-07T12:41:02.787Z,25.25
2022-09-07T12:43:35.504Z,25.24
2022-09-07T12:46:02.155Z,25.08
2022-09-07T12:48:37.720Z,24.96
2022-09-07T12:51:59.623Z,24.81
2022-09-07T12:54:27.528Z,24.66
2022-09-07T12:59:55.231Z,24.56
2022-09-07T13:02:30.816Z,24.67
2022-09-07T13:05:03.478Z,24.84
2022-09-07T13:07:30.015Z,24.90
2022-09-07T13:09:58.896Z,24.83
2022-09-07T13:12:56.786Z,24.69
2022-09-07T13:15:40.760Z,24.62
2022-09-07T13:18:32.514Z,24.52
2022-09-07T13:21:08.075Z,24.36
2022-09-07T13:23:37.950Z,24.30
2022-09-07T13:26:08.663Z,24.24
2022-09-07T13:28:56.132Z,24.19
2022-09-07T13:31:43.348Z,24.17
2022-09-07T13:34:34.792Z,24.17
2022-09-07T13:37:03.518Z,24.18
2022-09-07T13:39:39.096Z,24.23
2022-09-07T13:42:06.513Z,24.26
2022-09-07T13:44:34.894Z,24.36
2022-09-07T13:47:13.656Z,24.52
2022-09-07T13:50:10.884Z,24.76
2022-09-07T13:53:11.414Z,24.98
2022-09-07T13:56:15.496Z,25.05
2022-09-07T13:58:48.569Z,25.09
2022-09-07T14:01:29.099Z,25.10
2022-09-07T14:04:06.756Z,25.17
2022-09-07T14:06:36.364Z,25.26
2022-09-07T14:09:13.446Z,25.37
2022-09-07T14:11:46.028Z,25.45
2022-09-07T14:14:21.329Z,25.57
2022-09-07T14:16:53.099Z,25.66
2022-09-07T14:19:41.344Z,25.73
2022-09-07T14:22:27.131Z,25.77
2022-09-07T14:25:05.423Z,25.82
2022-09-07T14:27:37.318Z,25.86
2022-09-07T14:30:19.312Z,25.84
2022-09-07T14:32:48.252Z,25.84
2022-09-07T14:35:18.428Z,25.82
2022-09-07T14:37:46.704Z,25.81
2022-09-07T14:40:19.326Z,25.79
2022-09-07T14:42:47.626Z,25.78
2022-09-07T14:45:23.081Z,25.74
2022-09-07T14:47:59.447Z,25.64
2022-09-07T14:50:41.424Z,25.59
2022-09-07T14:56:08.209Z,25.44
2022-09-07T14:58:35.053Z,25.40
2022-09-07T15:04:18.476Z,25.33
2022-09-07T15:07:02.235Z,25.27
2022-09-07T15:09:38.367Z,25.20
2022-09-07T15:12:27.331Z,25.13
2022-09-07T15:15:10.546Z,25.03
2022-09-07T15:17:44.860Z,25.00
2022-09-07T15:20:31.554Z,24.96
2022-09-07T15:22:58.769Z,24.93
2022-09-07T15:25:26.863Z,24.93
2022-09-07T15:27:54.823Z,24.95
2022-09-07T15:30:21.462Z,24.96
2022-09-07T15:32:48.490Z,25.02
2022-09-07T15:35:16.146Z,25.12
2022-09-07T15:40:33.267Z,25.30
2022-09-07T15:43:00.486Z,25.32
2022-09-07T15:45:27.535Z,25.32
2022-09-07T15:47:54.268Z,25.27
2022-09-07T15:50:23.172Z,25.23
2022-09-07T15:52:50.095Z,25.17
2022-09-07T15:55:17.518Z,25.09
2022-09-07T15:57:48.762Z,25.03
2022-09-07T16:00:16.990Z,24.99
2022-09-07T16:05:31.337Z,24.96
2022-09-07T16:10:44.919Z,24.97
2022-09-07T16:13:16.673Z,24.97
2022-09-07T16:15:45.861Z,25.01
2022-09-07T16:18:18.047Z,24.99
2022-09-07T16:20:45.488Z,25.01
2022-09-07T16:23:14.668Z,25.03
2022-09-07T16:25:43.473Z,25.01
2022-09-07T16:28:10.841Z,25.00
2022-09-07T16:30:41.109Z,24.96
2022-09-07T16:33:09.345Z,24.90
2022-09-07T16:35:35.953Z,24.85
2022-09-07T16:40:50.731Z,24.74
2022-09-07T16:43:17.441Z,24.69
2022-09-07T16:48:32.327Z,24.59
2022-09-07T16:51:02.255Z,24.55
2022-09-07T16:53:31.208Z,24.50
2022-09-07T16:56:12.853Z,24.49
2022-09-07T16:58:42.114Z,24.50
2022-09-07T17:01:11.617Z,24.50
2022-09-07T17:03:39.729Z,24.52
2022-09-07T17:06:08.160Z,24.52
2022-09-07T17:08:36.344Z,24.51
2022-09-07T17:11:08.496Z,24.51
2022-09-07T17:13:36.677Z,24.49
2022-09-07T17:16:10.614Z,24.43
2022-09-07T17:21:24.618Z,24.30
2022-09-07T17:23:55.651Z,24.25
2022-09-07T17:26:26.695Z,24.19
2022-09-07T17:28:56.640Z,24.13
2022-09-07T17:34:18.028Z,23.99
2022-09-07T17:36:44.575Z,23.91
2022-09-07T17:39:16.199Z,23.84
2022-09-07T17:41:44.094Z,23.74
2022-09-07T17:44:10.913Z,23.67
2022-09-07T17:46:37.501Z,23.61
2022-09-07T17:49:07.092Z,23.55
2022-09-07T17:51:33.725Z,23.46
2022-09-07T17:54:03.484Z,23.41
2022-09-07T17:56:31.617Z,23.37
2022-09-07T18:01:45.896Z,23.23
2022-09-07T18:04:13.239Z,23.20
2022-09-07T18:06:41.098Z,23.14
2022-09-07T18:09:07.598Z,23.08
2022-09-07T18:11:50.552Z,23.02
2022-09-07T18:14:18.520Z,22.94
2022-09-07T18:16:48.791Z,22.90
2022-09-07T18:19:15.957Z,22.86
2022-09-07T18:21:43.777Z,22.84
2022-09-07T18:24:17.163Z,22.81
2022-09-07T18:26:44.703Z,22.76
2022-09-07T18:29:28.301Z,22.74
2022-09-07T18:31:56.227Z,22.69
2022-09-07T18:34:23.200Z,22.67
2022-09-07T18:36:49.836Z,22.64
2022-09-07T18:39:16.559Z,22.58
2022-09-07T18:41:43.200Z,22.54
2022-09-07T18:46:56.608Z,22.43
2022-09-07T18:49:23.592Z,22.35
2022-09-07T18:54:37.914Z,22.24
2022-09-07T18:57:04.619Z,22.20
2022-09-07T18:59:31.121Z,22.14
2022-09-07T19:02:03.198Z,22.05
2022-09-07T19:07:17.899Z,21.98
2022-09-07T19:09:44.623Z,21.96
2022-09-07T19:12:11.180Z,21.94
2022-09-07T19:14:37.740Z,21.92
2022-09-07T19:17:04.441Z,21.91
2022-09-07T19:19:31.061Z,21.86
2022-09-07T19:21:58.342Z,21.84
2022-09-07T19:24:25.779Z,21.77
2022-09-07T19:26:55.750Z,21.73
2022-09-07T19:29:25.176Z,21.72
2022-09-07T19:32:06.797Z,21.72
2022-09-07T19:34:40.902Z,21.71
2022-09-07T19:37:09.238Z,21.66
2022-09-07T19:39:37.434Z,21.66
2022-09-07T19:42:05.844Z,21.65
2022-09-07T19:44:32.895Z,21.60
2022-09-07T19:47:00.565Z,21.57
2022-09-07T19:49:27.706Z,21.55
2022-09-07T19:51:54.939Z,21.52
2022-09-07T19:54:21.606Z,21.47
2022-09-07T19:56:48.428Z,21.45
2022-09-07T19:59:15.171Z,21.44
2022-09-07T20:01:46.067Z,21.40
2022-09-07T20:04:19.760Z,21.37
2022-09-07T20:06:50.434Z,21.34
2022-09-07T20:09:18.566Z,21.27
2022-09-07T20:11:46.899Z,21.21
2022-09-07T20:14:15.197Z,21.19
2022-09-07T20:16:42.022Z,21.14
2022-09-07T20:19:10.760Z,21.08
2022-09-07T20:21:37.353Z,21.05
2022-09-07T20:24:04.517Z,21.00
2022-09-07T20:26:32.492Z,20.96
2022-09-07T20:29:16.790Z,20.92
2022-09-07T20:31:47.045Z,20.88
2022-09-07T20:34:13.988Z,20.83
2022-09-07T20:36:40.654Z,20.79
2022-09-07T20:39:07.423Z,20.77
2022-09-07T20:41:34.977Z,20.73
2022-09-07T20:44:03.148Z,20.72
2022-09-07T20:46:30.403Z,20.70
2022-09-07T20:48:57.418Z,20.69
2022-09-07T20:51:24.465Z,20.68
2022-09-07T20:53:51.679Z,20.65
2022-09-07T20:56:21.627Z,20.64
2022-09-07T20:58:53.194Z,20.61
2022-09-07T21:01:21.250Z,20.55
2022-09-07T21:03:50.525Z,20.48
2022-09-07T21:06:18.466Z,20.43
2022-09-07T21:08:47.175Z,20.39
2022-09-07T21:11:20.085Z,20.38
2022-09-07T21:13:47.008Z,20.37
2022-09-07T21:16:16.282Z,20.33
2022-09-07T21:18:44.365Z,20.27
2022-09-07T21:21:20.663Z,20.23
2022-09-07T21:23:47.786Z,20.20
2022-09-07T21:26:14.870Z,20.15
2022-09-07T21:28:41.427Z,20.10
2022-09-07T21:31:08.993Z,20.05
2022-09-07T21:33:37.670Z,19.98
2022-09-07T21:36:14.182Z,19.96
2022-09-07T21:38:41.170Z,19.92
2022-09-07T21:41:08.700Z,19.86
2022-09-07T21:43:35.574Z,19.81
2022-09-07T21:46:09.846Z,19.77
2022-09-07T21:48:36.633Z,19.74
2022-09-07T21:51:04.596Z,19.70
2022-09-07T21:53:31.329Z,19.64
2022-09-07T21:56:00.209Z,19.61
2022-09-07T21:58:28.461Z,19.57
2022-09-07T22:00:56.525Z,19.56
2022-09-07T22:03:25.194Z,19.52
2022-09-07T22:05:51.934Z,19.50
2022-09-07T22:08:18.616Z,19.48
2022-09-07T22:10:45.835Z,19.46
2022-09-07T22:13:12.648Z,19.47
2022-09-07T22:15:41.060Z,19.45
2022-09-07T22:18:11.333Z,19.45
2022-09-07T22:20:39.552Z,19.46
2022-09-07T22:23:06.394Z,19.44
2022-09-07T22:25:33.583Z,19.45
2022-09-07T22:28:00.315Z,19.43
2022-09-07T22:30:27.996Z,19.43
2022-09-07T22:32:54.745Z,19.41
2022-09-07T22:35:23.742Z,19.36
2022-09-07T22:37:50.308Z,19.33
2022-09-07T22:40:17.050Z,19.31
2022-09-07T22:42:43.650Z,19.29
2022-09-07T22:45:10.501Z,19.26
2022-09-07T22:47:37.057Z,19.23
2022-09-07T22:50:03.842Z,19.21
2022-09-07T22:52:30.405Z,19.20
2022-09-07T22:54:57.104Z,19.18
2022-09-07T22:57:23.701Z,19.18
2022-09-07T22:59:51.456Z,19.16
2022-09-07T23:02:18.058Z,19.16
2022-09-07T23:04:44.852Z,19.14
2022-09-07T23:07:11.477Z,19.15
2022-09-07T23:09:38.092Z,19.15
2022-09-07T23:12:04.644Z,19.18
2022-09-07T23:14:31.206Z,19.19
2022-09-07T23:16:57.686Z,19.21
2022-09-07T23:19:24.315Z,19.22
2022-09-07T23:21:50.800Z,19.23
2022-09-07T23:24:19.109Z,19.24
2022-09-07T23:26:46.902Z,19.24
2022-09-07T23:29:14.710Z,19.23
2022-09-07T23:31:42.092Z,19.23
2022-09-07T23:34:09.562Z,19.23
2022-09-07T23:36:37.140Z,19.19
2022-09-07T23:39:04.167Z,19.14
2022-09-07T23:41:31.737Z,19.10
2022-09-07T23:43:59.243Z,19.08
2022-09-07T23:46:26.125Z,19.05
2022-09-07T23:48:52.887Z,19.02
2022-09-07T23:51:23.777Z,19.01
2022-09-07T23:53:51.330Z,18.97
2022-09-07T23:56:17.873Z,18.96
2022-09-07T23:58:44.439Z,18.94
